Howard Beach, New York
Current Conditions -  °F | °C
As of 1:51 PM on Monday 20 Oct 2014 (Local Time) from KJFK Reporting Station
Broken Clouds Broken Clouds  
Wind Chill: 15°   Ceiling: 26000
Heat Index: 15°   Visibility: 10mi
Dew Point:   Wind: 13mph
Humidity: 41%   Direction: 210°SSW
Pressure: 30.06"   Gusts: NA
Location:  40.66°N, 73.84°W
Report Text: KJFK 201751Z 21011KT 10SM SCT150 BKN260 15/02 A3006 RMK AO2 SLP178 T01500017 10150 20072 56027 $
Loading
Personal Weather Stations






























Interactive Weather Map
Tropical Storm Tracking
New forecast layout! Learn more

10-Day Weather Forecast

Advertisements
Track Severe Weather on mobile